KOXD/OXD METAR and TAF weather

Enter ICAO airport designator
Station Type Date Time Source
KOXD METAR 2020/03/28 08:55 UTC NOAA

KOXD 280855Z AUTO 17006KT 7SM SCT075 13/13 A2975 RMK AO2 60002 T01330133


Station Type Date Time Source
KOXD Decoded METAR 2020/03/28 08:55 UTC NOAA

Station name not available
Mar 28, 2020 - 04:55 AM EDT / 2020.03.28 0855 UTC
Wind: from the S (170 degrees) at 7 MPH (6 KT):0
Visibility: 7 mile(s):0
Sky conditions: partly cloudy
Temperature: 55.9 F (13.3 C)
Dew Point: 55.9 F (13.3 C)
Relative Humidity: 100%
Pressure (altimeter): 29.75 in. Hg (1007 hPa)
ob: KOXD 280855Z AUTO 17006KT 7SM SCT075 13/13 A2975 RMK AO2 60002 T01330133
cycle: 9

Station Type Date Time Source
KOXD TAF UTC NOAA

Error!

Example: see airport list